Time;durP1;ratioP1;P1;durP2;ratioP2;P2;SDS_P1;SDS_P2;PMS_P1;PMS_P2;Temp;Humidity;BMP_temperature;BMP_pressure;BME280_temperature;BME280_humidity;BME280_pressure;Samples;Min_cycle;Max_cycle;Signal;HPM_P1;HPM_P2
2023/06/01 00:01:59;;;;;;;9.90;5.03;;;14.50;63.80;;;;;;5092995;28;20552;-68
2023/06/01 00:04:25;;;;;;;12.02;5.00;;;14.40;63.80;;;;;;5092388;28;20492;-68
2023/06/01 00:06:51;;;;;;;8.52;4.18;;;14.30;63.90;;;;;;5109717;27;20043;-68
2023/06/01 00:09:17;;;;;;;10.18;4.78;;;14.30;64.00;;;;;;5126682;27;20072;-68
2023/06/01 00:11:43;;;;;;;8.07;4.13;;;14.20;64.10;;;;;;5075602;28;20479;-68
2023/06/01 00:14:09;;;;;;;11.27;5.82;;;14.20;64.20;;;;;;5092021;28;20491;-68
2023/06/01 00:16:36;;;;;;;10.00;4.43;;;14.20;64.50;;;;;;5126850;27;20120;-68
2023/06/01 00:19:03;;;;;;;6.82;3.85;;;14.20;64.40;;;;;;5126851;27;20047;-68
2023/06/01 00:21:31;;;;;;;6.43;3.55;;;14.20;64.50;;;;;;5114258;27;20048;-68
2023/06/01 00:23:57;;;;;;;10.75;4.75;;;14.30;64.50;;;;;;5103721;28;20133;-68
2023/06/01 00:26:23;;;;;;;8.70;5.18;;;14.30;64.80;;;;;;5075249;28;20039;-68
2023/06/01 00:28:49;;;;;;;11.55;4.72;;;14.30;64.40;;;;;;5126407;27;20047;-68
2023/06/01 00:31:15;;;;;;;10.48;4.40;;;14.40;64.40;;;;;;5092418;28;20048;-68
2023/06/01 00:33:40;;;;;;;8.77;4.22;;;14.40;64.20;;;;;;5075398;28;20544;-68
2023/06/01 00:36:06;;;;;;;9.15;3.95;;;14.50;64.30;;;;;;5075144;28;20036;-68
2023/06/01 00:38:32;;;;;;;8.73;4.45;;;14.50;64.10;;;;;;5091053;28;20044;-68
2023/06/01 00:40:58;;;;;;;12.73;5.10;;;14.50;64.10;;;;;;5092031;28;20047;-68
2023/06/01 00:43:24;;;;;;;7.45;4.50;;;14.50;64.00;;;;;;5126286;27;20055;-68
2023/06/01 00:45:49;;;;;;;12.43;5.05;;;14.60;63.90;;;;;;5092071;28;20040;-68
2023/06/01 00:48:16;;;;;;;9.02;4.38;;;14.60;63.90;;;;;;5091937;28;20044;-68
2023/06/01 00:50:42;;;;;;;13.63;4.85;;;14.60;63.90;;;;;;5091699;28;20055;-68
2023/06/01 00:53:14;;;;;;;11.40;5.40;;;14.60;63.90;;;;;;5091683;28;20491;-68
2023/06/01 00:55:40;;;;;;;8.50;4.43;;;14.60;64.10;;;;;;5092634;28;20471;-68
2023/06/01 00:58:06;;;;;;;7.72;4.15;;;14.60;64.10;;;;;;5091952;28;20476;-68
2023/06/01 01:00:32;;;;;;;7.43;4.90;;;14.60;64.00;;;;;;5092116;28;20051;-68
2023/06/01 01:03:00;;;;;;;10.13;4.60;;;14.60;64.00;;;;;;5091790;28;20505;-68
2023/06/01 01:05:26;;;;;;;8.32;3.85;;;14.60;64.00;;;;;;5091685;28;20111;-68
2023/06/01 01:08:24;;;;;;;9.30;4.63;;;14.60;63.80;;;;;;5123702;28;20055;-68
2023/06/01 01:11:03;;;;;;;13.13;5.10;;;14.60;63.80;;;;;;5125842;28;20043;-68
2023/06/01 01:13:58;;;;;;;8.77;4.78;;;14.60;63.80;;;;;;5091715;28;20234;-68
2023/06/01 01:16:27;;;;;;;10.88;5.07;;;14.60;63.70;;;;;;5106036;28;20040;-68
2023/06/01 01:19:12;;;;;;;10.63;4.75;;;14.60;63.70;;;;;;5081708;28;20059;-68
2023/06/01 01:21:42;;;;;;;9.40;5.38;;;14.60;63.70;;;;;;5088664;28;20449;-68
2023/06/01 01:24:56;;;;;;;6.50;3.80;;;14.60;63.80;;;;;;5091204;28;20441;-68
2023/06/01 01:27:38;;;;;;;9.02;4.57;;;14.60;63.50;;;;;;5074823;28;20039;-68
2023/06/01 01:30:06;;;;;;;6.60;3.92;;;14.60;64.10;;;;;;5125025;28;20119;-68
2023/06/01 01:32:35;;;;;;;14.18;5.53;;;14.90;63.80;;;;;;5125525;28;20487;-68
2023/06/01 01:35:03;;;;;;;11.18;4.55;;;14.60;63.50;;;;;;5123949;28;20070;-68
2023/06/01 01:37:28;;;;;;;13.38;6.03;;;14.60;63.50;;;;;;5114484;28;20044;-68
2023/06/01 01:39:54;;;;;;;8.75;4.72;;;14.60;63.50;;;;;;5075128;28;20063;-68
2023/06/01 01:42:20;;;;;;;9.02;4.22;;;14.70;63.40;;;;;;5074863;28;20048;-68
2023/06/01 01:44:46;;;;;;;10.15;4.32;;;14.70;63.20;;;;;;5118769;28;20480;-68
2023/06/01 01:47:25;;;;;;;7.70;4.07;;;14.70;63.10;;;;;;5091651;28;20081;-68
2023/06/01 01:50:03;;;;;;;9.07;5.10;;;14.70;63.00;;;;;;5093933;28;20047;-68
2023/06/01 01:52:41;;;;;;;10.20;5.05;;;14.70;63.00;;;;;;5095083;28;20051;-68
2023/06/01 01:55:11;;;;;;;9.73;4.70;;;14.70;62.70;;;;;;5095076;28;20050;-68
2023/06/01 01:57:37;;;;;;;9.52;4.00;;;14.70;62.70;;;;;;5129253;27;20051;-68
2023/06/01 02:00:07;;;;;;;12.23;4.97;;;14.70;62.70;;;;;;5095020;28;20448;-68
2023/06/01 02:02:33;;;;;;;8.45;4.63;;;14.60;62.80;;;;;;5095161;28;20048;-68
2023/06/01 02:04:59;;;;;;;9.82;5.30;;;14.60;62.80;;;;;;5112512;27;20465;-68
2023/06/01 02:07:24;;;;;;;10.57;5.30;;;14.60;62.80;;;;;;5129230;27;20048;-68
2023/06/01 02:09:50;;;;;;;11.27;5.38;;;14.50;62.60;;;;;;5111787;28;20040;-68
2023/06/01 02:12:16;;;;;;;9.32;4.70;;;14.50;62.60;;;;;;5127682;27;20064;-68
2023/06/01 02:14:42;;;;;;;10.75;5.18;;;14.50;62.60;;;;;;5095988;28;20043;-68
2023/06/01 02:17:07;;;;;;;10.38;4.50;;;14.40;62.70;;;;;;5094802;28;20055;-68
2023/06/01 02:19:33;;;;;;;9.27;4.60;;;14.40;62.90;;;;;;5077870;28;20044;-68
2023/06/01 02:21:59;;;;;;;12.18;5.57;;;14.40;63.00;;;;;;5128839;27;20130;-68
2023/06/01 02:24:25;;;;;;;9.95;4.20;;;14.40;62.90;;;;;;5117998;27;20042;-68
2023/06/01 02:26:55;;;;;;;8.98;4.47;;;14.40;62.90;;;;;;5095818;28;20032;-68
2023/06/01 02:29:24;;;;;;;9.07;4.32;;;14.40;63.00;;;;;;5110775;27;20148;-68
2023/06/01 02:31:51;;;;;;;8.63;4.38;;;14.40;63.10;;;;;;5128126;27;20146;-68
2023/06/01 02:34:17;;;;;;;8.73;4.40;;;14.40;63.10;;;;;;5121335;27;20036;-68
2023/06/01 02:36:43;;;;;;;10.02;4.35;;;14.40;63.10;;;;;;5074023;28;20072;-69
2023/06/01 02:39:09;;;;;;;11.93;5.25;;;14.40;63.30;;;;;;5074295;28;20121;-68
2023/06/01 02:41:35;;;;;;;11.23;5.03;;;14.40;63.20;;;;;;5073978;28;20044;-68
2023/06/01 02:44:01;;;;;;;12.25;5.00;;;14.40;63.20;;;;;;5079556;28;20071;-69
2023/06/01 02:46:27;;;;;;;7.72;3.90;;;14.40;63.20;;;;;;5094030;28;20125;-69
2023/06/01 02:48:52;;;;;;;8.20;4.93;;;14.30;63.10;;;;;;5093833;28;20040;-68
2023/06/01 02:51:18;;;;;;;14.13;5.97;;;14.30;63.10;;;;;;5093882;28;20056;-68
2023/06/01 02:53:46;;;;;;;7.93;4.38;;;14.20;63.20;;;;;;5094027;28;20043;-68
2023/06/01 02:56:12;;;;;;;8.40;4.18;;;14.20;63.40;;;;;;5128431;27;20040;-68
2023/06/01 02:58:38;;;;;;;10.73;4.47;;;14.20;63.50;;;;;;5127379;27;20078;-68
2023/06/01 03:01:04;;;;;;;9.13;4.78;;;14.20;63.50;;;;;;5127180;27;20071;-68
2023/06/01 03:03:30;;;;;;;7.80;4.90;;;14.20;63.60;;;;;;5109423;27;20464;-68
2023/06/01 03:05:57;;;;;;;9.18;4.22;;;14.20;63.60;;;;;;5094423;28;20403;-68
2023/06/01 03:08:24;;;;;;;11.27;6.13;;;14.20;63.50;;;;;;5123874;27;20091;-68
2023/06/01 03:10:50;;;;;;;8.05;5.47;;;14.20;63.50;;;;;;5090392;28;20040;-68
2023/06/01 03:13:16;;;;;;;8.05;4.68;;;14.20;63.50;;;;;;5083357;28;20032;-68
2023/06/01 03:15:42;;;;;;;8.68;4.60;;;14.20;63.40;;;;;;5094310;28;20036;-68
2023/06/01 03:18:11;;;;;;;8.15;3.78;;;14.20;63.40;;;;;;5093429;28;20122;-68
2023/06/01 03:20:37;;;;;;;12.95;5.25;;;14.20;63.30;;;;;;5094603;28;20040;-69
2023/06/01 03:23:03;;;;;;;7.80;3.88;;;14.20;63.30;;;;;;5076529;28;20104;-68
2023/06/01 03:25:28;;;;;;;7.47;3.72;;;14.20;63.30;;;;;;5093078;28;20111;-68
2023/06/01 03:27:54;;;;;;;8.27;4.82;;;14.20;63.40;;;;;;5076460;28;20051;-68
2023/06/01 03:30:21;;;;;;;9.35;3.95;;;14.20;63.40;;;;;;5127815;27;20048;-68
2023/06/01 03:32:47;;;;;;;8.10;4.13;;;14.20;63.40;;;;;;5127274;27;20169;-68
2023/06/01 03:35:13;;;;;;;9.48;4.75;;;14.20;63.40;;;;;;5126960;27;20119;-68
2023/06/01 03:37:43;;;;;;;5.70;4.13;;;14.20;63.50;;;;;;5127431;27;20050;-68
2023/06/01 03:40:12;;;;;;;7.80;4.03;;;14.20;63.40;;;;;;5116103;27;20050;-68
2023/06/01 03:42:43;;;;;;;8.15;4.25;;;14.20;63.40;;;;;;5072838;28;20075;-68
2023/06/01 03:45:10;;;;;;;6.70;3.55;;;14.20;63.30;;;;;;5079099;28;20052;-68
2023/06/01 03:47:36;;;;;;;8.93;4.10;;;14.20;63.40;;;;;;5093044;28;20079;-68
2023/06/01 03:50:07;;;;;;;9.05;4.35;;;14.20;63.30;;;;;;5092995;28;20518;-68
2023/06/01 03:52:33;;;;;;;8.98;3.70;;;14.20;63.30;;;;;;5093083;28;20040;-68
2023/06/01 03:55:10;;;;;;;9.52;3.88;;;14.20;63.30;;;;;;5092652;28;20036;-68
2023/06/01 03:57:37;;;;;;;10.95;4.15;;;14.20;63.80;;;;;;5093860;28;20538;-68
2023/06/01 04:00:17;;;;;;;8.35;3.50;;;14.20;63.40;;;;;;5092752;28;20089;-68
2023/06/01 04:03:07;;;;;;;8.15;3.72;;;14.20;63.50;;;;;;5077232;28;20048;-68
2023/06/01 04:05:33;;;;;;;7.55;3.90;;;14.20;63.40;;;;;;5092420;28;20040;-68
2023/06/01 04:07:58;;;;;;;6.10;3.15;;;14.20;63.60;;;;;;5126135;27;20047;-69
2023/06/01 04:10:24;;;;;;;7.43;4.05;;;14.20;63.70;;;;;;5092625;28;20063;-69
2023/06/01 04:12:50;;;;;;;7.60;4.15;;;14.20;63.60;;;;;;5092629;28;20040;-69
2023/06/01 04:15:19;;;;;;;8.05;3.78;;;14.20;63.40;;;;;;5075391;28;20542;-68
2023/06/01 04:17:45;;;;;;;7.35;3.78;;;14.20;63.20;;;;;;5092631;28;20078;-68
2023/06/01 04:20:15;;;;;;;7.95;3.58;;;14.20;63.10;;;;;;5126776;27;20448;-68
2023/06/01 04:22:42;;;;;;;7.65;3.45;;;14.20;63.10;;;;;;5075218;28;20050;-68
2023/06/01 04:25:12;;;;;;;6.47;3.67;;;14.20;63.10;;;;;;5075040;28;20040;-68
2023/06/01 04:27:44;;;;;;;9.70;4.13;;;14.20;63.10;;;;;;5092194;28;20113;-68
2023/06/01 04:30:11;;;;;;;7.20;3.42;;;14.20;63.20;;;;;;5091934;28;20123;-68
2023/06/01 04:32:38;;;;;;;8.82;3.40;;;14.20;63.30;;;;;;5126173;27;20123;-68
2023/06/01 04:35:05;;;;;;;5.72;3.58;;;14.20;63.30;;;;;;5074955;28;20032;-68
2023/06/01 04:37:36;;;;;;;6.32;3.92;;;14.20;63.30;;;;;;5126339;27;20044;-68
2023/06/01 04:40:06;;;;;;;5.82;3.50;;;14.20;63.20;;;;;;5054918;28;20040;-68
2023/06/01 04:42:33;;;;;;;8.57;3.58;;;14.20;63.10;;;;;;5087803;28;20054;-68
2023/06/01 04:45:01;;;;;;;6.40;3.22;;;14.20;63.20;;;;;;5121667;27;20063;-68
2023/06/01 04:47:27;;;;;;;8.23;3.33;;;14.20;63.20;;;;;;5118501;27;20045;-68
2023/06/01 04:49:53;;;;;;;8.38;3.78;;;14.20;63.20;;;;;;5071936;28;20036;-68
2023/06/01 04:52:19;;;;;;;7.13;2.97;;;14.20;63.20;;;;;;5071740;28;20541;-68
2023/06/01 04:54:45;;;;;;;6.65;3.25;;;14.20;63.20;;;;;;5076500;28;20040;-68
2023/06/01 04:57:13;;;;;;;8.38;3.83;;;14.10;63.20;;;;;;5119220;28;20071;-68
2023/06/01 04:59:41;;;;;;;7.43;3.30;;;14.10;63.40;;;;;;5107766;28;20457;-68
2023/06/01 05:02:07;;;;;;;4.45;3.00;;;14.10;63.60;;;;;;5074992;28;20555;-68
2023/06/01 05:04:33;;;;;;;9.10;3.50;;;14.10;63.60;;;;;;5091467;28;20040;-68
2023/06/01 05:06:58;;;;;;;6.75;3.20;;;14.10;63.60;;;;;;5125731;28;20043;-68
2023/06/01 05:09:25;;;;;;;6.10;3.75;;;14.10;63.60;;;;;;5126272;28;20553;-68
2023/06/01 05:11:50;;;;;;;7.32;3.28;;;14.10;63.50;;;;;;5125703;28;20044;-68
2023/06/01 05:14:16;;;;;;;7.25;3.13;;;14.20;63.40;;;;;;5112702;28;20036;-68
2023/06/01 05:16:42;;;;;;;8.23;3.83;;;14.20;63.30;;;;;;5105348;28;20047;-68
2023/06/01 05:19:07;;;;;;;7.25;3.60;;;14.20;63.10;;;;;;5072759;28;20046;-68
2023/06/01 05:21:33;;;;;;;5.80;2.95;;;14.20;63.10;;;;;;5071282;28;20041;-68
2023/06/01 05:23:59;;;;;;;6.72;3.65;;;14.20;63.00;;;;;;5072839;28;20051;-68
2023/06/01 05:26:25;;;;;;;5.65;3.50;;;14.20;63.10;;;;;;5095810;28;20052;-68
2023/06/01 05:28:50;;;;;;;7.00;3.47;;;14.30;63.20;;;;;;5095642;28;20556;-68
2023/06/01 05:31:16;;;;;;;7.85;4.03;;;14.30;63.10;;;;;;5095570;28;20054;-69
2023/06/01 05:33:42;;;;;;;5.65;3.05;;;14.20;63.10;;;;;;5112126;28;20464;-68
2023/06/01 05:36:08;;;;;;;8.10;3.83;;;14.30;63.00;;;;;;5075432;28;20091;-69
2023/06/01 05:38:33;;;;;;;7.63;4.00;;;14.30;63.10;;;;;;5109051;28;20472;-69
2023/06/01 05:40:59;;;;;;;7.93;3.45;;;14.30;63.10;;;;;;5114192;27;20075;-69
2023/06/01 05:43:25;;;;;;;7.38;3.47;;;14.30;63.20;;;;;;5094968;28;20184;-69
2023/06/01 05:45:51;;;;;;;6.38;3.30;;;14.20;63.30;;;;;;5117773;27;20044;-68
2023/06/01 05:48:17;;;;;;;6.93;3.00;;;14.20;63.40;;;;;;5077221;28;20036;-68
2023/06/01 05:50:43;;;;;;;7.30;3.50;;;14.30;63.60;;;;;;5077892;28;20144;-68
2023/06/01 05:53:09;;;;;;;7.10;3.17;;;14.30;63.60;;;;;;5094940;28;20489;-68
2023/06/01 05:55:35;;;;;;;8.18;3.80;;;14.30;63.40;;;;;;5094869;28;20043;-68
2023/06/01 05:58:01;;;;;;;6.00;3.80;;;14.40;63.20;;;;;;5113924;27;20040;-68
2023/06/01 06:00:26;;;;;;;8.02;3.70;;;14.40;63.00;;;;;;5094067;28;20040;-68
2023/06/01 06:02:52;;;;;;;9.15;3.85;;;14.30;63.00;;;;;;5077767;28;20044;-68
2023/06/01 06:05:18;;;;;;;6.93;3.42;;;14.30;63.10;;;;;;5094623;28;20040;-69
2023/06/01 06:07:44;;;;;;;7.50;3.80;;;14.30;63.10;;;;;;5128746;27;20067;-69
2023/06/01 06:10:12;;;;;;;8.18;3.90;;;14.30;63.20;;;;;;5124824;27;20101;-69
2023/06/01 06:12:38;;;;;;;8.60;4.07;;;14.40;63.30;;;;;;5115155;27;20071;-69
2023/06/01 06:15:04;;;;;;;9.90;3.92;;;14.40;63.20;;;;;;5091252;28;20072;-69
2023/06/01 06:17:30;;;;;;;5.43;3.20;;;14.40;63.10;;;;;;5057673;28;20047;-69
2023/06/01 06:19:56;;;;;;;7.90;3.72;;;14.50;63.10;;;;;;5097527;28;20035;-69
2023/06/01 06:22:21;;;;;;;7.53;3.28;;;14.50;63.00;;;;;;5077158;28;20040;-69
2023/06/01 06:24:47;;;;;;;9.00;3.40;;;14.50;62.50;;;;;;5077516;28;20440;-68
2023/06/01 06:27:13;;;;;;;6.97;3.33;;;14.50;62.40;;;;;;5077489;28;20067;-68
2023/06/01 06:29:39;;;;;;;7.63;3.35;;;14.50;62.20;;;;;;5094651;28;20035;-68
2023/06/01 06:32:05;;;;;;;5.25;2.78;;;14.50;62.20;;;;;;5094309;28;20117;-65
2023/06/01 06:34:35;;;;;;;9.57;3.58;;;14.40;62.50;;;;;;5093882;28;20036;-65
2023/06/01 06:37:03;;;;;;;5.43;2.92;;;14.40;62.80;;;;;;5093391;28;20169;-65
2023/06/01 06:39:28;;;;;;;7.05;3.08;;;14.40;62.90;;;;;;5094192;28;20047;-65
2023/06/01 06:41:54;;;;;;;6.60;3.28;;;14.50;63.20;;;;;;5094054;28;20044;-65
2023/06/01 06:44:20;;;;;;;9.20;3.72;;;14.50;63.40;;;;;;5077182;28;20040;-65
2023/06/01 06:46:45;;;;;;;8.98;4.18;;;14.50;63.50;;;;;;5094050;28;20040;-65
2023/06/01 06:49:11;;;;;;;7.60;3.53;;;14.50;63.50;;;;;;5093567;28;20048;-65
2023/06/01 06:51:37;;;;;;;7.65;3.25;;;14.50;63.50;;;;;;5094129;28;20062;-65
2023/06/01 06:54:05;;;;;;;8.15;3.85;;;14.50;63.50;;;;;;5094988;28;20040;-64
2023/06/01 06:56:31;;;;;;;6.78;3.40;;;14.50;63.50;;;;;;5093712;28;20048;-65
2023/06/01 06:58:56;;;;;;;9.23;3.90;;;14.50;63.60;;;;;;5076763;28;20035;-65
2023/06/01 07:01:24;;;;;;;7.53;3.67;;;14.50;63.60;;;;;;5076593;28;20047;-65
2023/06/01 07:03:52;;;;;;;6.90;3.75;;;14.60;63.50;;;;;;5093079;28;20043;-65
2023/06/01 07:06:18;;;;;;;11.32;3.70;;;14.60;63.40;;;;;;5093884;28;20055;-65
2023/06/01 07:08:44;;;;;;;5.60;3.58;;;14.60;63.40;;;;;;5093488;28;20190;-65
2023/06/01 07:11:10;;;;;;;7.18;3.45;;;14.70;63.60;;;;;;5093427;28;20071;-65
2023/06/01 07:13:37;;;;;;;7.05;4.00;;;14.80;63.70;;;;;;5127654;27;20072;-65
2023/06/01 07:16:04;;;;;;;9.13;4.07;;;14.80;63.40;;;;;;5127573;27;20118;-65
2023/06/01 07:18:30;;;;;;;8.68;3.58;;;14.80;63.30;;;;;;5127554;27;20044;-65
2023/06/01 07:20:57;;;;;;;7.55;3.00;;;14.90;63.00;;;;;;5127835;27;20109;-65
2023/06/01 07:23:23;;;;;;;8.00;3.63;;;14.90;63.10;;;;;;5112691;27;20040;-65
2023/06/01 07:25:48;;;;;;;8.43;3.80;;;14.90;63.00;;;;;;5073247;28;20044;-65
2023/06/01 07:28:15;;;;;;;5.53;3.35;;;14.90;62.70;;;;;;5074148;28;20496;-65
2023/06/01 07:30:41;;;;;;;7.68;3.08;;;14.90;62.80;;;;;;5108781;28;20502;-65
2023/06/01 07:33:07;;;;;;;6.35;2.75;;;14.90;62.80;;;;;;5094114;28;20040;-65
2023/06/01 07:35:33;;;;;;;6.88;3.05;;;15.00;62.90;;;;;;5126802;27;20105;-65
2023/06/01 07:38:00;;;;;;;6.15;3.17;;;15.00;62.90;;;;;;5114452;27;20048;-64
2023/06/01 07:40:26;;;;;;;8.38;3.63;;;15.00;63.10;;;;;;5084536;28;20074;-65
2023/06/01 07:42:51;;;;;;;9.65;3.60;;;15.10;63.10;;;;;;5092885;28;20032;-65
2023/06/01 07:45:17;;;;;;;7.55;2.97;;;15.10;63.00;;;;;;5092853;28;20047;-65
2023/06/01 07:47:43;;;;;;;7.57;3.05;;;15.20;62.90;;;;;;5092535;28;20076;-65
2023/06/01 07:50:09;;;;;;;7.07;3.17;;;15.20;62.50;;;;;;5126654;27;20581;-65
2023/06/01 07:52:35;;;;;;;7.20;3.13;;;15.20;62.50;;;;;;5113575;27;20053;-65
2023/06/01 07:55:01;;;;;;;7.68;3.05;;;15.20;62.40;;;;;;5126940;27;20042;-65
2023/06/01 07:57:27;;;;;;;8.23;4.05;;;15.30;62.40;;;;;;5093001;28;20083;-65
2023/06/01 07:59:53;;;;;;;8.93;3.45;;;15.30;62.40;;;;;;5092699;28;20456;-65
2023/06/01 08:02:20;;;;;;;11.05;3.70;;;15.40;62.40;;;;;;5119163;27;20119;-65
2023/06/01 08:04:46;;;;;;;6.82;2.83;;;15.40;62.30;;;;;;5083649;28;20127;-65
2023/06/01 08:07:14;;;;;;;5.53;2.92;;;15.40;62.00;;;;;;5111250;27;20105;-65
2023/06/01 08:09:40;;;;;;;5.75;2.55;;;15.50;61.80;;;;;;5090295;28;20101;-65
2023/06/01 08:12:06;;;;;;;6.00;2.42;;;15.60;61.70;;;;;;5093942;28;20116;-68
2023/06/01 08:14:33;;;;;;;5.30;2.28;;;15.70;62.00;;;;;;5126622;27;20044;-68
2023/06/01 08:17:01;;;;;;;5.90;2.85;;;15.70;61.40;;;;;;5093777;28;20134;-68
2023/06/01 08:19:27;;;;;;;6.30;2.78;;;15.80;61.30;;;;;;5126511;27;20044;-68
2023/06/01 08:21:53;;;;;;;6.35;3.03;;;15.90;61.20;;;;;;5075690;28;20044;-68
2023/06/01 08:24:22;;;;;;;5.32;2.85;;;15.90;60.60;;;;;;5092545;28;20494;-68
2023/06/01 08:26:48;;;;;;;6.57;2.75;;;16.00;60.40;;;;;;5092391;28;20042;-68
2023/06/01 08:29:14;;;;;;;7.18;2.85;;;16.00;60.20;;;;;;5092207;28;20126;-68
2023/06/01 08:31:40;;;;;;;9.10;2.70;;;16.00;59.90;;;;;;5091756;28;20046;-68
2023/06/01 08:34:06;;;;;;;6.03;2.65;;;16.10;59.80;;;;;;5091751;28;20040;-68
2023/06/01 08:36:31;;;;;;;7.95;3.40;;;16.20;59.80;;;;;;5091895;28;20126;-68
2023/06/01 08:38:57;;;;;;;9.32;2.88;;;16.20;59.50;;;;;;5126284;27;20047;-68
2023/06/01 08:41:50;;;;;;;7.88;2.63;;;16.20;59.50;;;;;;5124878;27;20499;-68
2023/06/01 08:44:22;;;;;;;6.63;2.97;;;16.30;59.30;;;;;;5119630;27;20483;-68
2023/06/01 08:46:48;;;;;;;6.45;2.70;;;16.30;59.50;;;;;;5081749;28;20044;-68
2023/06/01 08:49:15;;;;;;;6.85;3.22;;;16.40;59.60;;;;;;5126094;27;20053;-68
2023/06/01 08:51:42;;;;;;;6.20;2.80;;;16.50;59.60;;;;;;5091460;28;20126;-68
2023/06/01 08:54:09;;;;;;;6.45;2.70;;;16.60;59.70;;;;;;5117211;27;20044;-68
2023/06/01 08:56:36;;;;;;;7.07;2.80;;;16.60;59.70;;;;;;5083886;28;20036;-65
2023/06/01 08:59:02;;;;;;;5.55;3.20;;;16.60;59.60;;;;;;5091487;28;20032;-65
2023/06/01 09:01:29;;;;;;;11.10;3.35;;;16.70;59.70;;;;;;5112108;27;20048;-65
2023/06/01 09:03:54;;;;;;;6.15;2.92;;;16.70;59.60;;;;;;5071700;28;20037;-65
2023/06/01 09:06:21;;;;;;;4.35;2.65;;;16.80;59.60;;;;;;5088465;28;20484;-65
2023/06/01 09:08:47;;;;;;;5.50;2.67;;;16.80;59.50;;;;;;5072637;28;20094;-65
2023/06/01 09:11:12;;;;;;;6.10;2.42;;;16.90;59.50;;;;;;5071692;28;20036;-65
2023/06/01 09:13:40;;;;;;;4.28;2.05;;;16.90;59.30;;;;;;5105284;28;20036;-65
2023/06/01 09:16:06;;;;;;;4.47;2.00;;;17.00;59.40;;;;;;5105192;28;20048;-65
2023/06/01 09:18:32;;;;;;;3.78;1.85;;;17.00;59.50;;;;;;5070356;28;20105;-65
2023/06/01 09:21:12;;;;;;;3.28;1.60;;;17.10;59.70;;;;;;5122732;28;20134;-65
2023/06/01 09:23:38;;;;;;;3.47;1.73;;;17.10;59.70;;;;;;5092844;28;20056;-65
2023/06/01 09:26:12;;;;;;;2.70;1.42;;;17.10;60.10;;;;;;5092591;28;20377;-65
2023/06/01 09:28:56;;;;;;;3.25;1.60;;;17.20;60.20;;;;;;5091460;28;20036;-65
2023/06/01 09:31:42;;;;;;;3.38;1.40;;;17.20;60.20;;;;;;5091898;28;20043;-66
2023/06/01 09:34:18;;;;;;;2.60;1.33;;;17.20;60.40;;;;;;5091746;28;20055;-65
2023/06/01 09:36:45;;;;;;;4.75;1.73;;;17.30;60.90;;;;;;5091480;28;20050;-65
2023/06/01 09:39:16;;;;;;;2.42;1.20;;;17.30;61.10;;;;;;5091152;28;20101;-65
2023/06/01 09:41:49;;;;;;;4.70;1.25;;;17.30;61.20;;;;;;5073334;28;20070;-66
2023/06/01 09:44:23;;;;;;;2.55;1.20;;;17.30;61.10;;;;;;5125754;28;20530;-66
2023/06/01 09:46:50;;;;;;;5.28;1.80;;;17.30;60.90;;;;;;5091341;28;20495;-65
2023/06/01 09:49:28;;;;;;;3.67;1.73;;;17.30;60.70;;;;;;5125378;28;20055;-65
2023/06/01 09:52:14;;;;;;;4.15;2.08;;;17.20;60.50;;;;;;5125203;28;20067;-65
2023/06/01 09:54:54;;;;;;;4.25;2.25;;;17.10;60.50;;;;;;5124919;28;20127;-65
2023/06/01 09:57:25;;;;;;;3.97;1.90;;;17.00;60.70;;;;;;5092026;28;20051;-66
2023/06/01 09:59:51;;;;;;;4.93;1.80;;;16.90;60.90;;;;;;5091005;28;20043;-64
2023/06/01 10:02:19;;;;;;;3.25;1.98;;;16.90;61.20;;;;;;5125530;28;20484;-65
2023/06/01 10:04:58;;;;;;;9.52;2.63;;;16.70;61.10;;;;;;5090803;28;20093;-65
2023/06/01 10:07:27;;;;;;;5.70;2.83;;;16.70;61.00;;;;;;5112003;28;20043;-66
2023/06/01 10:09:58;;;;;;;7.20;3.10;;;16.60;61.20;;;;;;5092128;28;20043;-66
2023/06/01 10:12:25;;;;;;;4.32;2.45;;;16.60;61.70;;;;;;5129979;27;20046;-66
2023/06/01 10:14:52;;;;;;;5.03;2.35;;;16.50;61.90;;;;;;5115171;28;20039;-66
2023/06/01 10:17:21;;;;;;;5.75;2.22;;;16.50;61.60;;;;;;5115090;28;20139;-65
2023/06/01 10:19:48;;;;;;;4.65;2.22;;;16.50;61.40;;;;;;5100456;28;20108;-65
2023/06/01 10:22:14;;;;;;;6.95;2.35;;;16.50;61.40;;;;;;5094531;28;20055;-65
2023/06/01 10:24:41;;;;;;;8.32;2.60;;;16.50;61.30;;;;;;5095742;28;20036;-65
2023/06/01 10:27:15;;;;;;;5.30;2.20;;;16.60;61.10;;;;;;5128467;27;20036;-65
2023/06/01 10:29:41;;;;;;;;;;;16.60;60.90;;;;;;5129201;27;20507;-65
2023/06/01 10:32:45;;;;;;;7.72;3.03;;;16.60;60.70;;;;;;5094349;28;19958;-65
2023/06/01 10:35:33;;;;;;;5.85;2.90;;;16.70;60.70;;;;;;5128230;27;20040;-65
2023/06/01 10:38:12;;;;;;;9.45;3.25;;;16.70;60.50;;;;;;5094935;28;20487;-66
2023/06/01 10:40:43;;;;;;;7.65;2.55;;;16.70;60.00;;;;;;5077084;28;20075;-65
2023/06/01 10:43:38;;;;;;;8.60;2.75;;;16.70;59.50;;;;;;5094122;28;20043;-66
2023/06/01 10:46:30;;;;;;;7.15;2.70;;;16.70;59.40;;;;;;5093813;28;20046;-66
2023/06/01 10:48:57;;;;;;;6.32;2.53;;;16.80;59.70;;;;;;5093887;28;20044;-66
2023/06/01 10:51:27;;;;;;;8.52;3.35;;;16.80;59.90;;;;;;5093412;28;20126;-65
2023/06/01 10:53:54;;;;;;;9.50;3.15;;;16.80;59.90;;;;;;5069031;28;20060;-65
2023/06/01 10:56:24;;;;;;;6.65;2.60;;;16.80;59.70;;;;;;5079820;28;20058;-65
2023/06/01 10:59:08;;;;;;;8.25;2.67;;;16.90;59.70;;;;;;5100235;27;20047;-65
2023/06/01 11:01:45;;;;;;;7.20;2.53;;;16.90;59.70;;;;;;5067903;28;20051;-65
2023/06/01 11:04:12;;;;;;;7.47;2.35;;;16.90;59.50;;;;;;5083674;28;20052;-65
2023/06/01 11:06:45;;;;;;;5.38;2.50;;;17.00;59.20;;;;;;5086038;28;20071;-65
2023/06/01 11:09:15;;;;;;;4.70;2.50;;;17.00;59.00;;;;;;5083566;28;20502;-65
2023/06/01 11:11:55;;;;;;;9.25;2.85;;;17.00;59.00;;;;;;5084049;28;20475;-65
2023/06/01 11:14:30;;;;;;;7.22;2.60;;;17.00;58.90;;;;;;5083657;28;20746;-65
2023/06/01 11:17:27;;;;;;;8.30;2.47;;;17.10;59.10;;;;;;5118335;27;20054;-65
2023/06/01 11:19:58;;;;;;;4.30;2.45;;;17.10;58.90;;;;;;5116944;27;20044;-65
2023/06/01 11:22:24;;;;;;;7.38;2.80;;;17.10;58.70;;;;;;5116541;27;20055;-65
2023/06/01 11:24:54;;;;;;;6.13;2.92;;;17.20;58.70;;;;;;5101121;28;20052;-65
2023/06/01 11:27:20;;;;;;;7.97;2.42;;;17.20;58.60;;;;;;5119363;27;20138;-65
2023/06/01 11:29:49;;;;;;;8.45;2.60;;;17.20;58.20;;;;;;5117148;27;20048;-65
2023/06/01 11:32:20;;;;;;;6.88;2.85;;;17.30;57.70;;;;;;5065805;28;20044;-65
2023/06/01 11:34:48;;;;;;;5.78;2.38;;;17.20;57.60;;;;;;5118549;27;20043;-65
2023/06/01 11:37:15;;;;;;;7.72;2.78;;;17.20;57.80;;;;;;5082795;28;20487;-65
2023/06/01 11:39:42;;;;;;;9.18;2.75;;;17.30;58.00;;;;;;5068554;28;20099;-65
2023/06/01 11:42:18;;;;;;;8.88;2.80;;;17.30;58.10;;;;;;5082608;28;20044;-65
2023/06/01 11:44:48;;;;;;;7.70;2.35;;;17.30;57.80;;;;;;5099593;28;20506;-65
2023/06/01 11:47:14;;;;;;;7.88;3.08;;;17.40;57.70;;;;;;5117003;27;20071;-65
2023/06/01 11:49:48;;;;;;;6.53;2.80;;;17.40;57.10;;;;;;5083627;28;20181;-65
2023/06/01 11:52:15;;;;;;;7.15;2.95;;;17.40;57.10;;;;;;5116593;27;20109;-66
2023/06/01 11:54:41;;;;;;;7.00;2.92;;;17.40;56.70;;;;;;5115971;27;20044;-63
2023/06/01 11:57:07;;;;;;;7.55;2.47;;;17.30;56.70;;;;;;5116400;27;20471;-65
2023/06/01 11:59:44;;;;;;;7.78;2.80;;;17.30;57.50;;;;;;5116758;27;20035;-65
2023/06/01 12:02:24;;;;;;;9.13;3.42;;;17.40;57.90;;;;;;5112308;27;20548;-65
2023/06/01 12:05:08;;;;;;;8.02;3.40;;;17.50;57.00;;;;;;5113631;27;20064;-64
2023/06/01 12:07:48;;;;;;;9.77;3.10;;;17.50;56.30;;;;;;5078670;28;20510;-65
2023/06/01 12:10:16;;;;;;;7.35;2.92;;;17.50;55.90;;;;;;5094927;28;20115;-65
2023/06/01 12:12:43;;;;;;;6.90;3.35;;;17.40;56.80;;;;;;5079646;28;20119;-65
2023/06/01 12:15:15;;;;;;;7.03;3.15;;;17.50;57.00;;;;;;5079725;28;20075;-65
2023/06/01 12:17:49;;;;;;;7.57;2.97;;;17.50;56.70;;;;;;5078134;28;20127;-64
2023/06/01 12:20:37;;;;;;;6.65;3.25;;;17.50;56.60;;;;;;5084607;28;20047;-67
2023/06/01 12:23:20;;;;;;;5.68;2.63;;;17.60;57.00;;;;;;5081532;28;20040;-68
2023/06/01 12:26:01;;;;;;;6.13;2.92;;;17.60;56.50;;;;;;5116332;27;20094;-68
2023/06/01 12:28:29;;;;;;;6.32;3.08;;;17.70;56.60;;;;;;5084115;28;20048;-69
2023/06/01 12:31:12;;;;;;;7.68;3.03;;;17.80;56.50;;;;;;5114861;27;20058;-69
2023/06/01 12:33:39;;;;;;;10.20;3.17;;;17.90;56.60;;;;;;5114620;27;20044;-69
2023/06/01 12:36:07;;;;;;;8.50;3.28;;;17.90;56.40;;;;;;5085073;28;20365;-69
2023/06/01 12:38:37;;;;;;;8.43;3.10;;;18.00;55.60;;;;;;5085806;28;20051;-69
2023/06/01 12:41:11;;;;;;;7.07;2.60;;;18.10;55.60;;;;;;5115963;27;20132;-69
2023/06/01 12:43:38;;;;;;;6.78;3.22;;;18.20;55.20;;;;;;5083317;28;20032;-64
2023/06/01 12:46:07;;;;;;;8.20;3.13;;;18.20;55.40;;;;;;5116512;27;20052;-65
2023/06/01 12:48:36;;;;;;;5.57;2.25;;;18.30;54.90;;;;;;5115614;27;20040;-64
2023/06/01 12:51:03;;;;;;;5.35;2.40;;;18.30;54.50;;;;;;5114703;27;20052;-65
2023/06/01 12:53:29;;;;;;;6.50;2.92;;;18.30;54.60;;;;;;5114218;27;20040;-65
2023/06/01 12:55:56;;;;;;;5.35;2.35;;;18.30;54.70;;;;;;5116986;27;20040;-65